Sheridan, NY

3:12 AM EDT on June 25, 2017 (GMT -0400)
Chautauqua County-Dunkirk | | Change Station
Active Advisory: Beach Hazard Statement

Elev 692 ft 42.49 °N, 79.27 °W | Updated 19 minutes ago

Clear
Clear
57 °F
Feels Like 57 °F
N
7
Wind Variable Wind from SSW

Today
High -- | Low -- °F
--% Chance of Precip.
Yesterday
High -- | Low -- °F
Precip. -- in
Pressure 29.97 in
Visibility 10.0 miles
Clouds Clear
Dew Point 55 °F
Humidity 93%
Rainfall 0.00 in
Snow Depth Not available.
5:40 AM 8:58 PM
New Moon, 2% visible
METAR KDKK 250653Z AUTO 21006KT 10SM CLR 14/13 A2997 RMK AO2 SLP148 T01390128 $
Pressure 29.97 in
Visibility 10.0 miles
Clouds Clear
Dew Point 55 °F
Humidity 93%
Rainfall 0.00 in
Snow Depth Not available.
5:40 AM 8:58 PM
New Moon, 2% visible
METAR KDKK 250653Z AUTO 21006KT 10SM CLR 14/13 A2997 RMK AO2 SLP148 T01390128 $

Get Your Daily Forecast Email!

Thanks for signing up!

Be on the lookout for a verification email in your inbox.

You'll start receiving severe weather alerts in your inbox..

×

10-Day Weather Forecast

Almanac

Astronomy

Jun. 25, 2017 Rise Set
Actual Time
Civil Twilight
Nautical Twilight
Astronomical Twilight
Moon
Length of Visible Light
Length of Day
Tomorrow will be .
, % of the Moon is Illuminated

Today's Extremes

State Highs State Lows

Community

WunderPhotos

Category 6

Welcome to Category 6. This is the collective home for Weather Underground's featured writeups by Dr. Jeff Masters (right), Bob Henson (left), Chris Burt, and other regular contributors.

Nearby

Air Quality

  Air Quality AQ Index Pollutant
Not available.

Snow Depth

Station Depth Elevation

Earthquake Activity

City Distance Mag. Time & Date
Minimum magnitude displayed is 2.5.

Coastal Water Temperatures

Place Temperature

Stations

Nearby Weather Stations

Station Location Temp. Windchill Dew Point Humidity Wind Precip. Elev Updated Type
                   

Watches & Warnings

Beach Hazard Statement
Issued: 9:24 PM EDT Jun. 24, 2017 – National Weather Service

... Beach hazards statement is now in effect from Sunday afternoon
through Sunday evening...

The National Weather Service in Buffalo has issued a beach
hazards statement... which is in effect from Sunday afternoon
through Sunday evening.

* Locations... beaches of Erie and Chautauqua counties.

* Timing... Sunday afternoon through late Sunday evening.

* Impacts... strong currents and dangerous swimming conditions.

Precautionary/preparedness actions...

A beach hazards statement is issued when there is a high swim
risk. This means life threatening waves and currents are
expected. Stay out of the water and stay away from dangerous
areas like piers and breakwalls.